createdAt,value
2018-04-29T00:00:27.836Z,1007.61
2018-04-29T00:01:48.841Z,1007.64
2018-04-29T00:02:27.879Z,1007.65
2018-04-29T00:03:27.867Z,1007.68
2018-04-29T00:04:48.830Z,1007.59
2018-04-29T00:05:27.827Z,1007.65
2018-04-29T00:06:48.819Z,1007.61
2018-04-29T00:07:27.832Z,1007.63
2018-04-29T00:08:27.822Z,1007.66
2018-04-29T00:09:48.840Z,1007.67
2018-04-29T00:10:27.828Z,1007.65
2018-04-29T00:11:48.779Z,1007.65
2018-04-29T00:12:27.780Z,1007.64
2018-04-29T00:13:27.783Z,1007.61
2018-04-29T00:14:48.781Z,1007.58
2018-04-29T00:15:27.783Z,1007.58
2018-04-29T00:16:48.801Z,1007.47
2018-04-29T00:17:27.782Z,1007.48
2018-04-29T00:18:27.749Z,1007.43
2018-04-29T00:19:48.770Z,1007.41
2018-04-29T00:20:27.762Z,1007.42
2018-04-29T00:21:48.756Z,1007.39
2018-04-29T00:22:27.774Z,1007.37
2018-04-29T00:23:27.741Z,1007.37
2018-04-29T00:24:48.753Z,1007.38
2018-04-29T00:25:27.713Z,1007.42
2018-04-29T00:26:48.827Z,1007.44
2018-04-29T00:27:27.728Z,1007.47
2018-04-29T00:28:27.723Z,1007.39
2018-04-29T00:29:48.731Z,1007.40
2018-04-29T00:30:27.740Z,1007.38
2018-04-29T00:31:48.717Z,1007.33
2018-04-29T00:32:27.699Z,1007.34
2018-04-29T00:33:27.691Z,1007.30
2018-04-29T00:34:48.724Z,1007.36
2018-04-29T00:35:27.693Z,1007.38
2018-04-29T00:36:48.698Z,1007.39
2018-04-29T00:37:27.728Z,1007.40
2018-04-29T00:38:27.694Z,1007.39
2018-04-29T00:39:48.718Z,1007.41
2018-04-29T00:40:27.697Z,1007.43
2018-04-29T00:41:48.684Z,1007.38
2018-04-29T00:42:27.648Z,1007.32
2018-04-29T00:43:27.628Z,1007.32
2018-04-29T00:44:48.671Z,1007.32
2018-04-29T00:45:27.628Z,1007.34
2018-04-29T00:46:48.699Z,1007.34
2018-04-29T00:47:27.615Z,1007.34
2018-04-29T00:48:27.618Z,1007.36
2018-04-29T00:49:48.638Z,1007.36
2018-04-29T00:50:27.621Z,1007.36
2018-04-29T00:51:48.623Z,1007.35
2018-04-29T00:52:27.685Z,1007.35
2018-04-29T00:53:27.593Z,1007.35
2018-04-29T00:54:48.637Z,1007.39
2018-04-29T00:55:27.653Z,1007.40
2018-04-29T00:56:48.575Z,1007.39
2018-04-29T00:57:27.587Z,1007.35
2018-04-29T00:58:27.580Z,1007.31
2018-04-29T00:59:48.648Z,1007.28
2018-04-29T01:00:27.567Z,1007.33
2018-04-29T01:01:48.621Z,1007.26
2018-04-29T01:02:27.608Z,1007.25
2018-04-29T01:03:27.582Z,1007.21
2018-04-29T01:04:48.574Z,1007.21
2018-04-29T01:05:27.533Z,1007.10
2018-04-29T01:06:48.562Z,1007.06
2018-04-29T01:07:27.528Z,1007.01
2018-04-29T01:08:27.532Z,1007.01
2018-04-29T01:09:48.537Z,1007.02
2018-04-29T01:10:27.546Z,1006.99
2018-04-29T01:11:48.583Z,1007.00
2018-04-29T01:12:27.541Z,1006.99
2018-04-29T01:13:27.528Z,1006.93
2018-04-29T01:14:48.483Z,1006.94
2018-04-29T01:15:27.522Z,1006.97
2018-04-29T01:16:48.529Z,1006.98
2018-04-29T01:17:27.517Z,1006.96
2018-04-29T01:18:27.499Z,1007.00
2018-04-29T01:19:48.476Z,1006.96
2018-04-29T01:20:27.489Z,1006.93
2018-04-29T01:21:48.495Z,1006.99
2018-04-29T01:22:27.483Z,1006.97
2018-04-29T01:23:27.448Z,1006.96
2018-04-29T01:24:48.459Z,1006.95
2018-04-29T01:25:27.453Z,1006.99
2018-04-29T01:26:48.458Z,1007.00
2018-04-29T01:27:27.473Z,1007.02
2018-04-29T01:28:27.459Z,1007.01
2018-04-29T01:29:48.443Z,1007.07
2018-04-29T01:30:27.424Z,1007.06
2018-04-29T01:31:48.453Z,1007.07
2018-04-29T01:32:27.429Z,1007.06
2018-04-29T01:33:27.435Z,1007.08
2018-04-29T01:34:48.410Z,1007.10
2018-04-29T01:35:27.412Z,1007.14
2018-04-29T01:36:48.408Z,1007.17
2018-04-29T01:37:27.382Z,1007.14
2018-04-29T01:38:27.388Z,1007.18
2018-04-29T01:39:48.406Z,1007.15
2018-04-29T01:40:27.397Z,1007.12
2018-04-29T01:41:48.377Z,1007.07
2018-04-29T01:42:27.371Z,1007.08
2018-04-29T01:43:27.354Z,1007.07
2018-04-29T01:44:48.372Z,1007.07
2018-04-29T01:45:27.375Z,1007.04
2018-04-29T01:46:48.359Z,1007.02
2018-04-29T01:47:27.366Z,1006.96
2018-04-29T01:48:27.358Z,1007.01
2018-04-29T01:49:48.364Z,1007.02
2018-04-29T01:50:27.335Z,1007.00
2018-04-29T01:51:48.344Z,1006.97
2018-04-29T01:52:27.328Z,1006.94
2018-04-29T01:53:27.338Z,1006.89
2018-04-29T01:54:48.329Z,1006.90
2018-04-29T01:55:27.312Z,1006.90
2018-04-29T01:56:48.306Z,1006.93
2018-04-29T01:57:27.334Z,1006.89
2018-04-29T01:58:27.308Z,1006.89
2018-04-29T01:59:48.308Z,1006.86
2018-04-29T02:00:27.278Z,1006.84
2018-04-29T02:01:48.308Z,1006.80
2018-04-29T02:02:27.292Z,1006.83
2018-04-29T02:03:27.301Z,1006.80
2018-04-29T02:04:48.308Z,1006.80
2018-04-29T02:05:27.274Z,1006.75
2018-04-29T02:06:48.274Z,1006.77
2018-04-29T02:07:27.260Z,1006.73
2018-04-29T02:08:27.273Z,1006.73
2018-04-29T02:09:48.256Z,1006.71
2018-04-29T02:10:27.271Z,1006.71
2018-04-29T02:11:48.251Z,1006.70
2018-04-29T02:12:27.245Z,1006.69
2018-04-29T02:13:27.228Z,1006.70
2018-04-29T02:14:48.255Z,1006.65
2018-04-29T02:15:27.245Z,1006.67
2018-04-29T02:16:48.241Z,1006.60
2018-04-29T02:17:27.217Z,1006.60
2018-04-29T02:18:27.227Z,1006.58
2018-04-29T02:19:48.211Z,1006.60
2018-04-29T02:20:27.208Z,1006.64
2018-04-29T02:21:48.234Z,1006.64
2018-04-29T02:22:27.184Z,1006.62
2018-04-29T02:23:27.194Z,1006.60
2018-04-29T02:24:48.186Z,1006.54
2018-04-29T02:25:27.177Z,1006.50
2018-04-29T02:26:48.168Z,1006.49
2018-04-29T02:27:27.141Z,1006.51
2018-04-29T02:28:27.121Z,1006.48
2018-04-29T02:29:48.203Z,1006.49
2018-04-29T02:30:27.136Z,1006.50
2018-04-29T02:31:48.156Z,1006.49
2018-04-29T02:32:27.162Z,1006.50
2018-04-29T02:33:27.133Z,1006.44
2018-04-29T02:34:48.158Z,1006.45
2018-04-29T02:35:27.138Z,1006.45
2018-04-29T02:36:48.144Z,1006.47
2018-04-29T02:37:27.094Z,1006.54
2018-04-29T02:38:27.110Z,1006.57
2018-04-29T02:39:48.131Z,1006.55
2018-04-29T02:40:27.090Z,1006.50
2018-04-29T02:41:48.114Z,1006.53
2018-04-29T02:42:27.085Z,1006.54
2018-04-29T02:43:27.090Z,1006.56
2018-04-29T02:44:48.088Z,1006.55
2018-04-29T02:45:27.080Z,1006.53
2018-04-29T02:46:48.075Z,1006.48
2018-04-29T02:47:27.075Z,1006.47
2018-04-29T02:48:27.072Z,1006.45
2018-04-29T02:49:48.091Z,1006.43
2018-04-29T02:50:27.054Z,1006.48
2018-04-29T02:51:48.060Z,1006.51
2018-04-29T02:52:27.052Z,1006.45
2018-04-29T02:53:27.042Z,1006.52
2018-04-29T02:54:48.050Z,1006.45
2018-04-29T02:55:27.031Z,1006.46
2018-04-29T02:56:48.035Z,1006.44
2018-04-29T02:57:27.059Z,1006.42
2018-04-29T02:58:27.037Z,1006.39
2018-04-29T02:59:48.042Z,1006.38
2018-04-29T03:00:27.002Z,1006.31
2018-04-29T03:01:48.020Z,1006.29
2018-04-29T03:02:26.993Z,1006.27
2018-04-29T03:03:27.006Z,1006.24
2018-04-29T03:04:47.995Z,1006.27
2018-04-29T03:05:27.006Z,1006.24
2018-04-29T03:06:47.975Z,1006.26
2018-04-29T03:07:26.985Z,1006.26
2018-04-29T03:08:26.963Z,1006.26
2018-04-29T03:09:48.015Z,1006.30
2018-04-29T03:10:26.995Z,1006.26
2018-04-29T03:11:47.984Z,1006.28
2018-04-29T03:12:26.952Z,1006.26
2018-04-29T03:13:26.950Z,1006.25
2018-04-29T03:14:47.972Z,1006.22
2018-04-29T03:15:26.924Z,1006.23
2018-04-29T03:16:47.950Z,1006.17
2018-04-29T03:17:26.899Z,1006.15
2018-04-29T03:18:26.939Z,1006.12
2018-04-29T03:19:47.928Z,1006.13
2018-04-29T03:20:26.896Z,1006.11
2018-04-29T03:21:47.935Z,1006.06
2018-04-29T03:22:26.893Z,1006.06
2018-04-29T03:23:26.905Z,1006.05
2018-04-29T03:24:47.894Z,1006.01
2018-04-29T03:25:26.892Z,1006.01
2018-04-29T03:26:47.887Z,1005.96
2018-04-29T03:27:26.888Z,1005.96
2018-04-29T03:28:26.892Z,1005.97
2018-04-29T03:29:47.872Z,1005.98
2018-04-29T03:30:26.901Z,1006.01
2018-04-29T03:31:47.862Z,1006.00
2018-04-29T03:32:26.846Z,1005.99
2018-04-29T03:33:26.841Z,1006.02
2018-04-29T03:34:47.863Z,1006.00
2018-04-29T03:35:26.907Z,1005.93
2018-04-29T03:36:47.845Z,1005.92
2018-04-29T03:37:26.835Z,1005.90
2018-04-29T03:38:26.812Z,1005.92
2018-04-29T03:39:47.825Z,1005.92
2018-04-29T03:40:26.811Z,1005.95
2018-04-29T03:41:47.827Z,1005.96
2018-04-29T03:42:26.826Z,1005.95
2018-04-29T03:43:26.847Z,1005.95
2018-04-29T03:44:47.810Z,1005.96
2018-04-29T03:45:26.802Z,1005.97
2018-04-29T03:46:47.785Z,1005.94
2018-04-29T03:47:26.791Z,1005.94
2018-04-29T03:48:26.795Z,1005.94
2018-04-29T03:49:47.792Z,1005.93
2018-04-29T03:50:26.756Z,1005.93
2018-04-29T03:51:47.745Z,1005.90
2018-04-29T03:52:26.794Z,1005.87
2018-04-29T03:53:26.757Z,1005.92
2018-04-29T03:54:47.763Z,1005.94
2018-04-29T03:55:26.738Z,1005.93
2018-04-29T03:56:47.749Z,1006.02
2018-04-29T03:57:26.760Z,1006.02
2018-04-29T03:58:26.701Z,1006.01
2018-04-29T03:59:47.753Z,1006.03
2018-04-29T04:00:26.720Z,1005.99
2018-04-29T04:01:51.284Z,1005.99
2018-04-29T04:02:26.774Z,1006.00
2018-04-29T04:03:26.801Z,1006.01
2018-04-29T04:04:47.727Z,1006.03
2018-04-29T04:05:26.707Z,1006.02
2018-04-29T04:06:47.706Z,1006.06
2018-04-29T04:07:26.681Z,1006.03
2018-04-29T04:08:26.679Z,1006.04
2018-04-29T04:09:47.783Z,1006.03
2018-04-29T04:10:26.668Z,1005.98
2018-04-29T04:11:47.685Z,1006.00
2018-04-29T04:12:26.657Z,1005.99
2018-04-29T04:13:26.671Z,1005.99
2018-04-29T04:14:47.662Z,1006.02
2018-04-29T04:15:26.648Z,1006.00
2018-04-29T04:16:47.674Z,1006.00
2018-04-29T04:17:26.651Z,1006.02
2018-04-29T04:18:26.641Z,1005.97
2018-04-29T04:19:47.662Z,1005.96
2018-04-29T04:20:26.625Z,1005.96
2018-04-29T04:21:47.606Z,1005.96
2018-04-29T04:22:26.610Z,1006.01
2018-04-29T04:23:26.608Z,1005.94
2018-04-29T04:24:47.627Z,1005.99
2018-04-29T04:25:26.612Z,1005.98
2018-04-29T04:26:47.631Z,1005.94
2018-04-29T04:27:26.606Z,1005.92
2018-04-29T04:28:26.603Z,1005.91
2018-04-29T04:29:47.616Z,1005.92
2018-04-29T04:30:26.587Z,1005.95
2018-04-29T04:31:47.581Z,1005.96
2018-04-29T04:32:26.589Z,1005.94
2018-04-29T04:33:26.614Z,1005.94
2018-04-29T04:34:47.587Z,1005.90
2018-04-29T04:35:26.566Z,1005.85
2018-04-29T04:36:47.567Z,1005.85
2018-04-29T04:37:26.546Z,1005.86
2018-04-29T04:38:26.566Z,1005.93
2018-04-29T04:39:47.568Z,1005.91
2018-04-29T04:40:26.531Z,1005.94
2018-04-29T04:41:47.512Z,1006.02
2018-04-29T04:42:26.550Z,1005.99
2018-04-29T04:43:26.533Z,1006.00
2018-04-29T04:44:47.517Z,1006.01
2018-04-29T04:45:26.487Z,1005.95
2018-04-29T04:46:47.517Z,1005.91
2018-04-29T04:47:26.501Z,1005.96
2018-04-29T04:48:26.517Z,1005.98
2018-04-29T04:49:47.521Z,1005.99
2018-04-29T04:50:26.500Z,1006.02
2018-04-29T04:51:47.473Z,1005.96
2018-04-29T04:52:26.488Z,1005.91
2018-04-29T04:53:26.457Z,1005.88
2018-04-29T04:54:47.472Z,1005.84
2018-04-29T04:55:26.462Z,1005.81
2018-04-29T04:56:47.473Z,1005.86
2018-04-29T04:57:26.453Z,1005.87
2018-04-29T04:58:26.446Z,1005.98
2018-04-29T04:59:47.468Z,1005.99
2018-04-29T05:00:26.458Z,1005.98
2018-04-29T05:01:47.429Z,1005.96
2018-04-29T05:02:26.437Z,1005.95
2018-04-29T05:03:26.441Z,1005.89
2018-04-29T05:04:47.426Z,1005.88
2018-04-29T05:05:26.418Z,1005.88
2018-04-29T05:06:47.476Z,1005.87
2018-04-29T05:07:26.472Z,1005.90
2018-04-29T05:08:26.409Z,1005.87
2018-04-29T05:09:47.406Z,1005.89
2018-04-29T05:10:26.385Z,1005.95
2018-04-29T05:11:47.392Z,1005.93
2018-04-29T05:12:26.398Z,1005.94
2018-04-29T05:13:26.397Z,1005.99
2018-04-29T05:14:47.440Z,1005.99
2018-04-29T05:15:26.359Z,1006.00
2018-04-29T05:16:47.358Z,1006.02
2018-04-29T05:17:26.403Z,1006.03
2018-04-29T05:18:26.368Z,1006.02
2018-04-29T05:19:47.339Z,1006.02
2018-04-29T05:20:26.356Z,1006.04
2018-04-29T05:21:47.377Z,1006.07
2018-04-29T05:22:26.326Z,1006.09
2018-04-29T05:23:26.332Z,1006.08
2018-04-29T05:24:47.369Z,1006.02
2018-04-29T05:25:26.294Z,1005.99
2018-04-29T05:26:47.316Z,1005.95
2018-04-29T05:27:26.297Z,1005.96
2018-04-29T05:28:26.324Z,1005.99
2018-04-29T05:29:47.323Z,1006.00
2018-04-29T05:30:26.337Z,1006.05
2018-04-29T05:31:47.283Z,1006.06
2018-04-29T05:32:26.289Z,1006.11
2018-04-29T05:33:26.284Z,1006.10
2018-04-29T05:34:47.289Z,1006.07
2018-04-29T05:35:26.332Z,1006.03
2018-04-29T05:36:47.294Z,1005.97
2018-04-29T05:37:26.267Z,1005.90
2018-04-29T05:38:26.247Z,1005.89
2018-04-29T05:39:47.309Z,1005.87
2018-04-29T05:40:26.252Z,1005.87
2018-04-29T05:41:47.271Z,1005.84
2018-04-29T05:42:26.240Z,1005.77
2018-04-29T05:43:26.243Z,1005.70
2018-04-29T05:44:47.229Z,1005.59
2018-04-29T05:45:26.236Z,1005.50
2018-04-29T05:46:47.254Z,1005.46
2018-04-29T05:47:26.229Z,1005.40
2018-04-29T05:48:26.215Z,1005.36
2018-04-29T05:49:47.308Z,1005.31
2018-04-29T05:50:26.243Z,1005.33
2018-04-29T05:51:47.246Z,1005.29
2018-04-29T05:52:26.205Z,1005.33
2018-04-29T05:53:26.195Z,1005.30
2018-04-29T05:54:47.200Z,1005.34
2018-04-29T05:55:26.750Z,1005.41
2018-04-29T05:56:47.197Z,1005.43
2018-04-29T05:57:26.199Z,1005.41
2018-04-29T05:58:26.179Z,1005.39
2018-04-29T05:59:47.194Z,1005.37
2018-04-29T06:00:26.194Z,1005.33
2018-04-29T06:01:47.163Z,1005.40
2018-04-29T06:02:26.166Z,1005.42
2018-04-29T06:03:26.196Z,1005.48
2018-04-29T06:04:47.130Z,1005.46
2018-04-29T06:05:26.150Z,1005.43
2018-04-29T06:06:47.204Z,1005.36
2018-04-29T06:07:26.150Z,1005.31
2018-04-29T06:08:26.104Z,1005.26
2018-04-29T06:09:47.144Z,1005.20
2018-04-29T06:10:26.126Z,1005.19
2018-04-29T06:11:47.116Z,1005.16
2018-04-29T06:12:26.124Z,1005.14
2018-04-29T06:13:26.099Z,1005.14
2018-04-29T06:14:47.123Z,1005.15
2018-04-29T06:15:26.120Z,1005.06
2018-04-29T06:16:47.081Z,1005.03
2018-04-29T06:17:26.099Z,1005.02
2018-04-29T06:18:26.105Z,1005.01
2018-04-29T06:19:47.114Z,1005.03
2018-04-29T06:20:26.180Z,1005.02
2018-04-29T06:21:47.101Z,1005.00
2018-04-29T06:22:26.112Z,1005.04
2018-04-29T06:23:26.085Z,1005.07
2018-04-29T06:24:47.072Z,1005.09
2018-04-29T06:25:26.039Z,1005.09
2018-04-29T06:26:47.070Z,1005.16
2018-04-29T06:27:26.041Z,1005.18
2018-04-29T06:28:26.042Z,1005.22
2018-04-29T06:29:47.044Z,1005.25
2018-04-29T06:30:26.016Z,1005.23
2018-04-29T06:31:47.038Z,1005.25
2018-04-29T06:32:26.031Z,1005.25
2018-04-29T06:33:25.999Z,1005.30
2018-04-29T06:34:47.036Z,1005.28
2018-04-29T06:35:26.045Z,1005.29
2018-04-29T06:36:47.025Z,1005.21
2018-04-29T06:37:26.041Z,1005.12
2018-04-29T06:38:26.006Z,1005.07
2018-04-29T06:39:46.996Z,1005.04
2018-04-29T06:40:26.019Z,1005.09
2018-04-29T06:41:46.978Z,1005.08
2018-04-29T06:42:25.990Z,1005.14
2018-04-29T06:43:25.995Z,1005.21
2018-04-29T06:44:47.017Z,1005.29
2018-04-29T06:45:25.949Z,1005.30
2018-04-29T06:46:47.017Z,1005.33
2018-04-29T06:47:25.974Z,1005.35
2018-04-29T06:48:26.015Z,1005.43
2018-04-29T06:49:46.940Z,1005.55
2018-04-29T06:50:25.975Z,1005.66
2018-04-29T06:51:46.943Z,1005.74
2018-04-29T06:52:25.949Z,1005.73
2018-04-29T06:53:26.007Z,1005.72
2018-04-29T06:54:46.912Z,1005.67
2018-04-29T06:55:25.956Z,1005.71
2018-04-29T06:56:46.939Z,1005.76
2018-04-29T06:57:25.904Z,1005.75
2018-04-29T06:58:25.901Z,1005.76
2018-04-29T06:59:46.891Z,1005.71
2018-04-29T07:00:25.946Z,1005.65
2018-04-29T07:01:46.889Z,1005.59
2018-04-29T07:02:25.898Z,1005.59
2018-04-29T07:03:25.891Z,1005.56
2018-04-29T07:04:46.967Z,1005.57
2018-04-29T07:05:25.903Z,1005.65
2018-04-29T07:06:46.892Z,1005.71
2018-04-29T07:07:25.867Z,1005.77
2018-04-29T07:08:25.871Z,1005.85
2018-04-29T07:09:46.846Z,1005.89
2018-04-29T07:10:25.861Z,1005.93
2018-04-29T07:11:46.849Z,1005.95
2018-04-29T07:12:25.867Z,1005.97
2018-04-29T07:13:25.846Z,1005.98
2018-04-29T07:14:46.832Z,1005.89
2018-04-29T07:15:25.804Z,1005.81
2018-04-29T07:16:46.833Z,1005.72
2018-04-29T07:17:25.811Z,1005.64
2018-04-29T07:18:25.852Z,1005.60
2018-04-29T07:19:46.799Z,1005.64
2018-04-29T07:20:25.821Z,1005.55
2018-04-29T07:21:46.823Z,1005.43
2018-04-29T07:22:25.805Z,1005.28
2018-04-29T07:23:25.767Z,1005.20
2018-04-29T07:24:46.788Z,1005.20
2018-04-29T07:25:25.807Z,1005.27
2018-04-29T07:26:46.798Z,1005.31
2018-04-29T07:27:25.806Z,1005.35
2018-04-29T07:28:25.757Z,1005.37
2018-04-29T07:29:46.771Z,1005.40
2018-04-29T07:30:25.841Z,1005.34
2018-04-29T07:31:46.726Z,1005.30
2018-04-29T07:32:25.817Z,1005.18
2018-04-29T07:33:25.756Z,1005.09
2018-04-29T07:34:46.747Z,1005.09
2018-04-29T07:35:25.754Z,1005.10
2018-04-29T07:36:46.778Z,1005.16
2018-04-29T07:37:25.746Z,1005.19
2018-04-29T07:38:25.733Z,1005.21
2018-04-29T07:39:46.809Z,1005.21
2018-04-29T07:40:25.761Z,1005.20
2018-04-29T07:41:46.710Z,1005.17
2018-04-29T07:42:25.701Z,1005.10
2018-04-29T07:43:25.700Z,1005.09
2018-04-29T07:44:46.741Z,1005.03
2018-04-29T07:45:25.699Z,1004.99
2018-04-29T07:46:46.695Z,1004.96
2018-04-29T07:47:25.716Z,1004.97
2018-04-29T07:48:25.672Z,1004.93
2018-04-29T07:49:46.667Z,1004.95
2018-04-29T07:50:25.690Z,1005.04
2018-04-29T07:51:46.712Z,1005.06
2018-04-29T07:52:25.738Z,1005.06
2018-04-29T07:53:25.636Z,1005.09
2018-04-29T07:54:46.675Z,1005.07
2018-04-29T07:55:25.659Z,1005.03
2018-04-29T07:56:46.659Z,1004.96
2018-04-29T07:57:25.673Z,1004.89
2018-04-29T07:58:25.625Z,1004.80
2018-04-29T07:59:46.624Z,1004.77
2018-04-29T08:00:25.608Z,1004.77
2018-04-29T08:01:46.616Z,1004.81
2018-04-29T08:02:25.658Z,1004.87
2018-04-29T08:03:25.602Z,1004.98
2018-04-29T08:04:46.582Z,1005.04
2018-04-29T08:05:25.591Z,1005.02
2018-04-29T08:06:46.604Z,1005.01
2018-04-29T08:07:25.563Z,1004.98
2018-04-29T08:08:25.560Z,1004.94
2018-04-29T08:09:46.592Z,1004.94
2018-04-29T08:10:25.600Z,1004.92
2018-04-29T08:11:46.556Z,1004.96
2018-04-29T08:12:25.548Z,1004.96
2018-04-29T08:13:25.629Z,1004.95
2018-04-29T08:14:46.574Z,1004.95
2018-04-29T08:15:25.611Z,1004.97
2018-04-29T08:16:46.571Z,1004.92
2018-04-29T08:17:25.598Z,1004.88
2018-04-29T08:18:25.599Z,1004.88
2018-04-29T08:19:46.600Z,1004.92
2018-04-29T08:20:25.520Z,1004.93
2018-04-29T08:21:46.528Z,1004.87
2018-04-29T08:22:25.603Z,1004.98
2018-04-29T08:23:25.520Z,1004.98
2018-04-29T08:24:46.529Z,1004.97
2018-04-29T08:25:25.547Z,1005.01
2018-04-29T08:26:46.469Z,1005.01
2018-04-29T08:27:25.525Z,1005.04
2018-04-29T08:28:25.486Z,1005.07
2018-04-29T08:29:46.511Z,1005.04
2018-04-29T08:30:25.492Z,1005.03
2018-04-29T08:31:46.547Z,1005.05
2018-04-29T08:32:25.509Z,1004.98
2018-04-29T08:33:25.439Z,1004.93
2018-04-29T08:34:46.479Z,1004.99
2018-04-29T08:35:25.472Z,1005.02
2018-04-29T08:36:46.443Z,1005.03
2018-04-29T08:37:25.432Z,1004.99
2018-04-29T08:38:25.470Z,1004.97
2018-04-29T08:39:46.452Z,1004.99
2018-04-29T08:40:25.472Z,1005.05
2018-04-29T08:41:46.451Z,1005.13
2018-04-29T08:42:25.528Z,1005.12
2018-04-29T08:43:25.433Z,1005.07
2018-04-29T08:44:46.448Z,1005.07
2018-04-29T08:45:25.432Z,1005.02
2018-04-29T08:46:46.479Z,1005.00
2018-04-29T08:47:25.393Z,1004.98
2018-04-29T08:48:25.430Z,1005.01
2018-04-29T08:49:46.391Z,1004.96
2018-04-29T08:50:25.401Z,1004.91
2018-04-29T08:51:46.420Z,1004.87
2018-04-29T08:52:25.392Z,1004.86
2018-04-29T08:53:25.415Z,1004.87
2018-04-29T08:54:46.426Z,1004.84
2018-04-29T08:55:25.349Z,1004.85
2018-04-29T08:56:46.384Z,1004.84
2018-04-29T08:57:25.396Z,1004.77
2018-04-29T08:58:25.425Z,1004.74
2018-04-29T08:59:46.360Z,1004.71
2018-04-29T09:00:25.369Z,1004.73
2018-04-29T09:01:46.344Z,1004.69
2018-04-29T09:02:25.321Z,1004.67
2018-04-29T09:03:25.337Z,1004.59
2018-04-29T09:04:46.372Z,1004.70
2018-04-29T09:05:25.346Z,1004.77
2018-04-29T09:06:46.346Z,1004.74
2018-04-29T09:07:25.344Z,1004.69
2018-04-29T09:08:25.314Z,1004.63
2018-04-29T09:09:46.337Z,1004.65
2018-04-29T09:10:25.322Z,1004.62
2018-04-29T09:11:46.344Z,1004.55
2018-04-29T09:12:25.258Z,1004.47
2018-04-29T09:13:25.260Z,1004.42
2018-04-29T09:14:46.314Z,1004.39
2018-04-29T09:15:25.261Z,1004.38
2018-04-29T09:16:46.380Z,1004.31
2018-04-29T09:17:25.243Z,1004.36
2018-04-29T09:18:25.282Z,1004.41
2018-04-29T09:19:46.345Z,1004.46
2018-04-29T09:20:25.300Z,1004.40
2018-04-29T09:21:46.276Z,1004.37
2018-04-29T09:22:25.209Z,1004.36
2018-04-29T09:23:25.297Z,1004.33
2018-04-29T09:24:46.228Z,1004.33
2018-04-29T09:25:25.294Z,1004.34
2018-04-29T09:26:46.226Z,1004.36
2018-04-29T09:27:25.244Z,1004.34
2018-04-29T09:28:25.227Z,1004.39
2018-04-29T09:29:46.225Z,1004.40
2018-04-29T09:30:25.306Z,1004.43
2018-04-29T09:31:46.212Z,1004.40
2018-04-29T09:32:25.184Z,1004.38
2018-04-29T09:33:25.187Z,1004.37
2018-04-29T09:34:46.184Z,1004.38
2018-04-29T09:35:25.210Z,1004.36
2018-04-29T09:36:46.227Z,1004.39
2018-04-29T09:37:25.211Z,1004.35
2018-04-29T09:38:25.201Z,1004.37
2018-04-29T09:39:46.184Z,1004.46
2018-04-29T09:40:25.180Z,1004.49
2018-04-29T09:41:46.133Z,1004.41
2018-04-29T09:42:25.188Z,1004.32
2018-04-29T09:43:25.262Z,1004.25
2018-04-29T09:44:46.157Z,1004.22
2018-04-29T09:45:25.119Z,1004.21
2018-04-29T09:46:46.173Z,1004.22
2018-04-29T09:47:25.140Z,1004.15
2018-04-29T09:48:25.116Z,1004.13
2018-04-29T09:49:46.161Z,1004.16
2018-04-29T09:50:25.115Z,1004.16
2018-04-29T09:51:46.150Z,1004.13
2018-04-29T09:52:25.064Z,1004.08
2018-04-29T09:53:25.106Z,1004.03
2018-04-29T09:54:46.104Z,1004.02
2018-04-29T09:55:25.204Z,1004.00
2018-04-29T09:56:46.095Z,1003.94
2018-04-29T09:57:25.090Z,1003.91
2018-04-29T09:58:25.090Z,1003.90
2018-04-29T09:59:46.070Z,1003.85
2018-04-29T10:00:25.045Z,1003.80
2018-04-29T10:01:46.039Z,1003.78
2018-04-29T10:02:25.011Z,1003.74
2018-04-29T10:03:25.041Z,1003.69
2018-04-29T10:04:46.063Z,1003.70
2018-04-29T10:05:25.019Z,1003.75
2018-04-29T10:06:46.048Z,1003.74
2018-04-29T10:07:25.085Z,1003.71
2018-04-29T10:08:25.013Z,1003.68
2018-04-29T10:09:46.028Z,1003.78
2018-04-29T10:10:25.048Z,1003.73
2018-04-29T10:11:46.040Z,1003.72
2018-04-29T10:12:25.017Z,1003.71
2018-04-29T10:13:25.005Z,1003.70
2018-04-29T10:14:46.059Z,1003.74
2018-04-29T10:15:24.955Z,1003.68
2018-04-29T10:16:46.013Z,1003.64
2018-04-29T10:17:24.990Z,1003.55
2018-04-29T10:18:25.013Z,1003.48
2018-04-29T10:19:45.995Z,1003.47
2018-04-29T10:20:24.991Z,1003.43
2018-04-29T10:21:45.924Z,1003.47
2018-04-29T10:22:24.993Z,1003.41
2018-04-29T10:23:24.948Z,1003.40
2018-04-29T10:24:45.950Z,1003.38
2018-04-29T10:25:24.981Z,1003.39
2018-04-29T10:26:45.964Z,1003.39
2018-04-29T10:27:24.936Z,1003.38
2018-04-29T10:28:24.934Z,1003.38
2018-04-29T10:29:45.964Z,1003.29
2018-04-29T10:30:24.941Z,1003.28
2018-04-29T10:31:45.937Z,1003.28
2018-04-29T10:32:24.890Z,1003.28
2018-04-29T10:33:24.855Z,1003.18
2018-04-29T10:34:45.884Z,1003.14
2018-04-29T10:35:24.979Z,1003.13
2018-04-29T10:36:45.891Z,1003.10
2018-04-29T10:37:24.942Z,1003.06
2018-04-29T10:38:24.874Z,1002.92
2018-04-29T10:39:45.887Z,1002.78
2018-04-29T10:40:24.908Z,1002.68
2018-04-29T10:41:45.891Z,1002.67
2018-04-29T10:42:24.855Z,1002.69
2018-04-29T10:43:24.869Z,1002.76
2018-04-29T10:44:45.891Z,1002.81
2018-04-29T10:45:24.846Z,1002.86
2018-04-29T10:46:45.901Z,1002.90
2018-04-29T10:47:24.865Z,1002.89
2018-04-29T10:48:24.874Z,1002.90
2018-04-29T10:49:45.868Z,1002.90
2018-04-29T10:50:24.879Z,1002.90
2018-04-29T10:51:45.830Z,1002.92
2018-04-29T10:52:24.914Z,1002.95
2018-04-29T10:53:24.858Z,1002.97
2018-04-29T10:54:45.797Z,1002.99
2018-04-29T10:55:24.815Z,1003.00
2018-04-29T10:56:45.899Z,1003.00
2018-04-29T10:57:24.846Z,1002.95
2018-04-29T10:58:24.835Z,1002.96
2018-04-29T10:59:45.802Z,1002.99
2018-04-29T11:00:24.866Z,1002.98
2018-04-29T11:01:45.808Z,1002.94
2018-04-29T11:02:24.801Z,1002.91
2018-04-29T11:03:24.772Z,1002.85
2018-04-29T11:04:45.793Z,1002.83
2018-04-29T11:05:24.765Z,1002.83
2018-04-29T11:06:45.848Z,1002.83
2018-04-29T11:07:24.747Z,1002.87
2018-04-29T11:08:24.780Z,1002.82
2018-04-29T11:09:45.751Z,1002.63
2018-04-29T11:10:24.706Z,1002.61
2018-04-29T11:11:45.783Z,1002.51
2018-04-29T11:12:24.738Z,1002.47
2018-04-29T11:13:24.697Z,1002.53
2018-04-29T11:14:45.744Z,1002.57
2018-04-29T11:15:24.685Z,1002.65
2018-04-29T11:16:45.797Z,1002.66
2018-04-29T11:17:24.775Z,1002.66
2018-04-29T11:18:24.768Z,1002.71
2018-04-29T11:19:45.672Z,1002.68
2018-04-29T11:20:24.703Z,1002.76
2018-04-29T11:21:46.288Z,1002.82
2018-04-29T11:22:25.718Z,1002.83
2018-04-29T11:23:24.730Z,1002.86
2018-04-29T11:24:45.683Z,1002.93
2018-04-29T11:25:24.695Z,1002.92
2018-04-29T11:26:46.470Z,1002.90
2018-04-29T11:27:25.620Z,1002.95
2018-04-29T11:28:24.676Z,1002.96
2018-04-29T11:29:45.671Z,1002.97
2018-04-29T11:30:24.685Z,1002.87
2018-04-29T11:31:45.655Z,1002.81
2018-04-29T11:32:24.639Z,1002.81
2018-04-29T11:33:24.645Z,1002.74
2018-04-29T11:34:46.293Z,1002.68
2018-04-29T11:35:24.597Z,1002.54
2018-04-29T11:36:45.615Z,1002.46
2018-04-29T11:37:24.601Z,1002.40
2018-04-29T11:38:24.708Z,1002.40
2018-04-29T11:39:45.591Z,1002.36
2018-04-29T11:40:24.731Z,1002.27
2018-04-29T11:41:45.622Z,1002.18
2018-04-29T11:42:24.589Z,1002.13
2018-04-29T11:43:24.607Z,1002.07
2018-04-29T11:44:45.580Z,1002.02
2018-04-29T11:45:24.598Z,1002.01
2018-04-29T11:46:45.612Z,1002.11
2018-04-29T11:47:24.589Z,1002.15
2018-04-29T11:48:24.567Z,1002.23
2018-04-29T11:49:45.591Z,1002.15
2018-04-29T11:50:24.582Z,1002.12
2018-04-29T11:51:45.583Z,1002.16
2018-04-29T11:52:24.598Z,1002.13
2018-04-29T11:53:24.533Z,1002.20
2018-04-29T11:54:45.675Z,1002.22
2018-04-29T11:55:25.229Z,1002.16
2018-04-29T11:56:45.620Z,1002.18
2018-04-29T11:57:24.560Z,1002.17
2018-04-29T11:58:24.522Z,1002.20
2018-04-29T11:59:45.555Z,1002.11
2018-04-29T12:00:24.581Z,1002.08
2018-04-29T12:01:46.404Z,1002.04
2018-04-29T12:02:25.183Z,1002.07
2018-04-29T12:03:24.571Z,1002.07
2018-04-29T12:04:45.532Z,1002.02
2018-04-29T12:05:24.516Z,1001.96